• Join FlightAware (Why Join?)
  • Login
  • US Flag 
04:39AM EDT


 

Airport Tracker/Info


-or-


 

Live Flight TrackerFlight Track Log ✈ DAL268 ✈ 27-Jul-2013 ✈ KSFO - KJFK

Flight Track Log - Related Links

Times and Time Zones

All times are in EDT time to prevent confusion due to time zone crossing. See the DAL268 flight status page for this flight to view local times or setup timezone preferences in your user account.

Time Position Orientation Groundspeed Altitude Reporting Facility
EDT Latitude Longitude Course Direction KTS MPH feet Rate Location/Type
02:18PM 37.6160 -122.3820 123° Southeast 11 13  Level FlightAware
02:19PM 37.6160 -122.3810 90° East 10 12 60 Level FlightAware
02:22PM 37.8256 -122.1578 38° Northeast  Level FlightAware Approximate
02:22PM 37.6150 -122.3810 38° Northeast 16 18  Level FlightAware
02:23PM 37.9190 -122.0644 38° Northeast  Level FlightAware Approximate
02:24PM 37.6130 -122.3820 202° Southwest 29 33  Level FlightAware
02:24PM 37.6090 -122.3850 211° Southwest 30 35 120 Level FlightAware
02:25PM 37.6090 -122.3840 90° East 33 38 120 Level FlightAware
02:25PM 37.6070 -122.3840 180° South 34 39 180 Level FlightAware
02:26PM 37.6060 -122.3830 142° Southeast 16 18 180 Level FlightAware
02:26PM 37.6070 -122.3810 58° Northeast 23 26 240 Level FlightAware
02:27PM 37.6110 -122.3780 31° Northeast 86 99 300 Level FlightAware
02:28PM 37.6314 -122.3650 27° Northeast 162 186 600 1,440 Climbing FlightAware ADS-B
02:28PM 37.6398 -122.3570 37° Northeast 164 189 1,200 2,520 Climbing FlightAware ADS-B
02:28PM 37.6440 -122.3520 43° Northeast 168 193 1,500 1,500 Climbing FlightAware ADS-B
02:29PM 37.6512 -122.3430 45° Northeast 181 208 1,700 720 Climbing FlightAware ADS-B
02:29PM 37.6642 -122.3260 46° Northeast 222 255 1,900 1,200 Climbing FlightAware ADS-B
02:29PM 37.6752 -122.3120 45° Northeast 234 269 2,400 2,280 Climbing FlightAware ADS-B
02:29PM 37.6876 -122.2960 46° Northeast 238 274 3,100 2,280 Climbing FlightAware ADS-B
02:30PM 37.6995 -122.2800 47° Northeast 250 288 3,600 1,680 Climbing FlightAware ADS-B
02:30PM 37.7201 -122.2530 46° Northeast 278 320 4,200 1,860 Climbing FlightAware ADS-B
02:30PM 37.7311 -122.2420 38° Northeast 279 321 4,700 2,640 Climbing FlightAware ADS-B
02:31PM 37.7547 -122.2210 35° Northeast 281 323 5,700 2,760 Climbing FlightAware ADS-B
02:31PM 37.7786 -122.1990 36° Northeast 280 322 6,800 2,640 Climbing FlightAware ADS-B
02:31PM 37.7948 -122.1830 38° Northeast 285 328 7,400 2,280 Climbing FlightAware ADS-B
02:32PM 37.8114 -122.1680 36° Northeast 288 331 8,000 2,400 Climbing FlightAware ADS-B
02:32PM 37.8273 -122.1520 38° Northeast 291 335 8,600 2,460 Climbing FlightAware ADS-B
02:32PM 37.8446 -122.1360 36° Northeast 295 339 9,300 2,460 Climbing FlightAware ADS-B
02:32PM 37.8611 -122.1200 37° Northeast 298 343 9,900 1,800 Climbing FlightAware ADS-B
02:33PM 37.8950 -122.0870 38° Northeast 318 366 10,700 1,320 Climbing FlightAware ADS-B
02:33PM 37.9331 -122.0500 37° Northeast 345 397 11,300 1,140 Climbing FlightAware ADS-B
02:34PM 37.9806 -122.0040 37° Northeast 369 425 12,000 1,560 Climbing FlightAware ADS-B
02:34PM 38.0224 -121.9630 38° Northeast 381 438 13,000 1,980 Climbing FlightAware ADS-B
02:35PM 38.0670 -121.9200 37° Northeast 387 445 14,100 2,040 Climbing FlightAware
02:35PM 38.0844 -121.9030 38° Northeast 391 450 14,500 1,800 Climbing FlightAware ADS-B
02:36PM 38.1870 -121.8030 37° Northeast 409 471 16,600 1,740 Climbing FlightAware
02:37PM 38.2500 -121.7410 38° Northeast 419 482 17,800 1,800 Climbing FlightAware
02:38PM 38.3180 -121.6750 37° Northeast 427 491 19,200 1,740 Climbing FlightAware
02:38PM 38.3820 -121.6120 38° Northeast 434 499 20,300 1,680 Climbing FlightAware
02:39PM 38.4500 -121.5370 41° Northeast 442 509 21,600 2,040 Climbing FlightAware
02:40PM 38.4940 -121.4670 51° Northeast 436 502 23,000 1,980 Climbing FlightAware
02:40PM 38.5310 -121.4030 54° Northeast 441 507 23,800 1,260 Climbing FlightAware
02:41PM 38.5830 -121.3130 54° Northeast 452 520 24,600 960 Climbing FlightAware
02:41PM 38.6049 -121.2750 54° Northeast 459 528 24,800 780 Climbing FlightAware ADS-B
02:42PM 38.6940 -121.1210 53° Northeast 484 557 25,800 900 Climbing FlightAware
02:43PM 38.7129 -121.0890 53° Northeast 486 559 26,100 1,200 Climbing FlightAware ADS-B
02:44PM 38.7990 -120.9390 54° Northeast 492 566 27,400 1,140 Climbing FlightAware
02:44PM 38.8480 -120.8530 54° Northeast 498 573 28,100 1,140 Climbing FlightAware
02:45PM 38.9110 -120.7460 53° Northeast 501 577 29,000 1,140 Climbing FlightAware
02:46PM 38.9680 -120.6480 53° Northeast 505 581 29,800 1,200 Climbing FlightAware
02:46PM 39.0270 -120.5440 54° Northeast 506 582 30,700 1,020 Climbing FlightAware
02:47PM 39.0870 -120.4410 53° Northeast 511 588 31,300 1,020 Climbing FlightAware
02:48PM 39.1490 -120.3320 54° Northeast 510 587 32,200 1,200 Climbing FlightAware
02:49PM 39.2040 -120.2360 54° Northeast 510 587 33,000 1,140 Climbing FlightAware
02:49PM 39.2660 -120.1270 54° Northeast 508 585 33,800 1,020 Climbing FlightAware
02:50PM 39.3210 -120.0290 54° Northeast 508 585 34,500 780 Climbing FlightAware
02:51PM 39.3790 -119.9260 54° Northeast 515 593 34,900 360 Climbing FlightAware
02:51PM 39.4340 -119.8300 53° Northeast 521 600 35,000 60 Climbing FlightAware
02:52PM 39.5010 -119.7100 54° Northeast 519 597 35,000  Level FlightAware
02:53PM 39.5580 -119.6090 54° Northeast 514 592 35,000  Level FlightAware
02:54PM 39.6210 -119.4960 54° Northeast 520 598 35,000  Level FlightAware
02:54PM 39.6790 -119.3920 54° Northeast 529 609 35,000  Level FlightAware
02:55PM 39.7420 -119.2780 54° Northeast 533 613 35,000  Level FlightAware
02:56PM 39.7980 -119.1750 55° Northeast 534 615 35,000 120 Level FlightAware
02:56PM 39.8530 -119.0750 54° Northeast 532 612 35,200 420 Climbing FlightAware
02:57PM 39.9190 -118.9560 54° Northeast 537 618 35,600 480 Climbing FlightAware
02:58PM 39.9780 -118.8490 54° Northeast 539 620 35,900 540 Climbing FlightAware
02:58PM 40.0430 -118.7290 55° Northeast 540 621 36,400 540 Climbing FlightAware
02:59PM 40.1020 -118.6190 55° Northeast 540 621 36,700 360 Climbing FlightAware
03:00PM 40.1450 -118.5060 64° Northeast 536 617 36,900 180 Climbing FlightAware
03:01PM 40.1820 -118.3730 70° East 534 615 37,000 60 Climbing FlightAware
03:01PM 40.2150 -118.2530 70° East 533 613 37,000  Level FlightAware
03:02PM 40.2520 -118.1150 71° East 533 613 37,000  Level FlightAware
03:03PM 40.2920 -117.9680 70° East 533 613 37,000  Level FlightAware
03:04PM 40.3380 -117.8030 70° East 533 613 37,000  Level FlightAware
03:04PM 40.3640 -117.7100 70° East 533 613 37,000  Level FlightAware
03:05PM 40.3980 -117.5860 70° East 533 613 37,000  Level FlightAware
03:06PM 40.4240 -117.4920 70° East 533 613 37,000  Level FlightAware
03:06PM 40.4500 -117.3970 70° East 533 613 37,000  Level FlightAware
03:07PM 40.4760 -117.3030 70° East 533 613 37,000  Level FlightAware
03:08PM 40.5020 -117.2100 70° East 533 613 37,000  Level FlightAware
03:08PM 40.5360 -117.0860 70° East 533 613 37,000  Level FlightAware
03:09PM 40.5610 -116.9980 69° East 533 613 37,000  Level FlightAware
03:10PM 40.6040 -116.8420 70° East 533 613 37,000  Level FlightAware
03:11PM 40.6290 -116.7490 70° East 533 613 37,000  Level FlightAware
03:11PM 40.6550 -116.6550 70° East 533 613 37,000  Level FlightAware
03:12PM 40.6830 -116.5540 70° East 533 613 37,000  Level FlightAware
03:12PM 40.8301 -116.2520 57° Northeast 530 610 37,000  Level FlightAware ADS-B
03:13PM 40.8676 -116.1540 63° Northeast 530 610 37,000  Level FlightAware ADS-B
03:14PM 40.9144 -116.0320 63° Northeast 530 610 37,000  Level FlightAware ADS-B
03:14PM 40.9492 -115.9410 63° Northeast 530 610 37,000  Level FlightAware ADS-B
03:15PM 40.9826 -115.8530 63° Northeast 530 610 37,000  Level FlightAware ADS-B
03:15PM 41.0185 -115.7580 63° Northeast 532 612 37,000  Level FlightAware ADS-B
03:16PM 41.0526 -115.6680 63° Northeast 534 615 37,000  Level FlightAware ADS-B
03:17PM 41.1150 -115.5010 64° Northeast 533 613 37,000  Level FlightAware
03:17PM 41.1284 -115.4660 63° Northeast 534 615 37,000  Level FlightAware ADS-B
03:18PM 41.1705 -115.3540 63° Northeast 532 612 37,000  Level FlightAware ADS-B
03:18PM 41.2034 -115.2650 64° Northeast 532 612 37,000  Level FlightAware ADS-B
03:19PM 41.2363 -115.1760 64° Northeast 532 612 37,000  Level FlightAware ADS-B
03:19PM 41.2691 -115.0880 64° Northeast 534 615 37,000  Level FlightAware ADS-B
03:20PM 41.3017 -115.0000 64° Northeast 536 617 37,000  Level FlightAware ADS-B
03:20PM 41.3381 -114.9010 64° Northeast 538 619 37,000  Level FlightAware ADS-B
03:21PM 41.3808 -114.7840 64° Northeast 538 619 37,000  Level FlightAware ADS-B
03:22PM 41.4364 -114.6320 64° Northeast 538 619 37,000  Level FlightAware ADS-B
03:22PM 41.4697 -114.5400 64° Northeast 537 618 37,000  Level FlightAware ADS-B
03:23PM 41.5026 -114.4490 64° Northeast 538 619 37,000  Level FlightAware ADS-B
03:23PM 41.5349 -114.3600 64° Northeast 539 620 37,000  Level FlightAware ADS-B
03:24PM 41.5688 -114.2660 64° Northeast 540 621 37,000  Level FlightAware ADS-B
03:24PM 41.6025 -114.1720 64° Northeast 541 623 37,000  Level FlightAware ADS-B
03:25PM 41.6357 -114.0790 64° Northeast 540 621 37,000  Level FlightAware ADS-B
03:25PM 41.6787 -113.9580 65° Northeast 540 621 37,000  Level FlightAware ADS-B
03:26PM 41.7117 -113.8650 65° Northeast 540 621 37,000  Level FlightAware ADS-B
03:26PM 41.7447 -113.7720 65° Northeast 539 620 37,000  Level FlightAware ADS-B
03:27PM 41.7768 -113.6810 65° Northeast 540 621 37,000  Level FlightAware ADS-B
03:27PM 41.8091 -113.5880 65° Northeast 540 621 37,000  Level FlightAware ADS-B
03:28PM 41.8412 -113.4970 65° Northeast 540 621 37,000  Level FlightAware ADS-B
03:28PM 41.8794 -113.3870 65° Northeast 540 621 37,000  Level FlightAware ADS-B
03:29PM 41.9186 -113.2750 65° Northeast 540 621 37,000  Level FlightAware ADS-B
03:30PM 41.9542 -113.1720 65° Northeast 539 620 37,000  Level FlightAware ADS-B
03:30PM 41.9890 -113.0710 65° Northeast 539 620 37,000  Level FlightAware ADS-B
03:31PM 42.0437 -112.9110 65° Northeast 537 618 37,000  Level FlightAware ADS-B
03:32PM 42.1060 -112.7300 65° Northeast 537 618 37,000  Level FlightAware
03:32PM 42.1211 -112.6840 66° East 537 618 37,000  Level FlightAware ADS-B
03:33PM 42.1542 -112.5870 65° Northeast 536 617 37,000  Level FlightAware ADS-B
03:34PM 42.1948 -112.4670 65° Northeast 536 617 37,000  Level FlightAware ADS-B
03:34PM 42.2261 -112.3720 66° East 535 616 37,000  Level FlightAware ADS-B
03:35PM 42.2745 -112.2240 66° East 536 617 37,000  Level FlightAware ADS-B
03:36PM 42.3238 -112.0710 66° East 537 618 37,000  Level FlightAware ADS-B
03:36PM 42.3539 -111.9780 66° East 541 623 37,000  Level FlightAware ADS-B
03:37PM 42.3854 -111.8810 66° East 541 623 37,000  Level FlightAware ADS-B
03:37PM 42.4168 -111.7830 67° East 542 624 37,000  Level FlightAware ADS-B
03:38PM 42.4511 -111.6760 66° East 539 620 37,000  Level FlightAware ADS-B
03:38PM 42.4837 -111.5740 67° East 539 620 37,000  Level FlightAware ADS-B
03:39PM 42.5169 -111.4700 67° East 538 619 37,000  Level FlightAware ADS-B
03:40PM 42.5780 -111.2800 66° East 536 617 37,000  Level FlightAware
03:41PM 42.6300 -111.1210 66° East 536 617 37,000  Level FlightAware
03:42PM 42.6610 -111.0260 66° East 536 617 37,000  Level FlightAware
03:43PM 42.7020 -110.9010 66° East 536 617 37,000  Level FlightAware
03:43PM 42.7330 -110.8060 66° East 536 617 37,000  Level FlightAware
03:45PM 42.8060 -110.5830 66° East 536 617 37,000  Level FlightAware
03:45PM 42.8370 -110.4890 66° East 536 617 37,000  Level FlightAware
03:46PM 42.8880 -110.3310 66° East 536 617 37,000  Level FlightAware
03:47PM 42.9290 -110.2050 66° East 536 617 37,000  Level FlightAware
03:48PM 42.9610 -110.1080 66° East 536 617 37,000  Level FlightAware
03:48PM 43.0020 -109.9810 66° East 536 617 37,000  Level FlightAware
03:49PM 43.0310 -109.8920 66° East 536 617 37,000  Level FlightAware
03:50PM 43.1144 -109.5172 66° East 533 613 37,000  Level Salt Lake Center
03:51PM 43.1694 -109.3269 68° East 537 618 37,000  Level Salt Lake Center
03:52PM 43.2250 -109.1408 68° East 534 615 37,000  Level Salt Lake Center
03:53PM 43.2881 -108.9089 69° East 540 621 37,000  Level Salt Lake Center
03:54PM 43.3450 -108.7203 67° East 539 620 37,000  Level Salt Lake Center
03:55PM 43.3997 -108.5289 68° East 541 623 37,000  Level Salt Lake Center
03:56PM 43.4531 -108.3369 69° East 540 621 37,000  Level Salt Lake Center
03:57PM 43.5083 -108.1461 68° East 541 623 37,000  Level Salt Lake Center
03:58PM 43.5656 -107.9553 67° East 542 624 37,000  Level Salt Lake Center
03:59PM 43.6325 -107.7256 68° East 542 624 37,000  Level Salt Lake Center
04:00PM 43.6883 -107.5342 68° East 543 625 37,000  Level Salt Lake Center
04:01PM 43.7433 -107.3403 69° East 545 627 37,000  Level Salt Lake Center
04:02PM 43.7719 -107.1364 79° East 548 631 37,000  Level Salt Lake Center
04:03PM 43.7978 -106.9303 80° East 549 632 37,000  Level Salt Lake Center
04:04PM 43.8328 -106.6950 78° East 544 626 37,000  Level Salt Lake Center
04:05PM 43.8628 -106.4933 78° East 550 633 37,000  Level Salt Lake Center
04:06PM 43.8486 -106.2556 95° East 555 639 37,000  Level Salt Lake Center
04:07PM 43.8244 -106.0550 99° East 554 638 37,000  Level Salt Lake Center
04:08PM 43.8289 -105.8164 88° East 552 635 37,000  Level Salt Lake Center
04:09PM 43.8319 -105.6144 89° East 551 634 37,000  Level Salt Lake Center
04:10PM 43.8381 -105.3786 88° East 548 631 37,000  Level Salt Lake Center
04:11PM 43.8431 -105.1783 88° East 546 628 37,000  Level Salt Lake Center
04:12PM 43.8478 -104.9458 88° East 542 624 37,000  Level Salt Lake Center
04:13PM 43.8622 -104.7489 84° East 537 618 37,000  Level Salt Lake Center
04:14PM 43.8897 -104.5556 79° East 535 616 37,000  Level Salt Lake Center
04:15PM 43.9189 -104.3300 80° East 532 612 37,000  Level Salt Lake Center
04:16PM 43.9447 -104.1339 80° East 536 617 37,000  Level Salt Lake Center
04:18PM 43.9753 -103.9067 79° East 536 617 37,000  Level Salt Lake Center
04:19PM 44.0014 -103.7119 79° East 535 616 37,000  Level Salt Lake Center
04:20PM 44.0322 -103.4858 79° East 534 615 37,000  Level Salt Lake Center
04:21PM 44.0658 -103.2319 79° East 529 609 37,000  Level Denver Center
04:22PM 44.0914 -103.0386 80° East 529 609 37,000  Level Denver Center
04:23PM 44.1197 -102.8133 80° East 529 609 37,000  Level Denver Center
04:24PM 44.1431 -102.6031 81° East 528 608 37,000  Level Denver Center
04:25PM 44.1653 -102.4017 81° East 527 606 37,000  Level Denver Center
04:26PM 44.1886 -102.2033 81° East 524 603 37,000  Level Denver Center
04:27PM 44.2092 -102.0014 82° East 525 604 37,000  Level Denver Center
04:28PM 44.2317 -101.8014 81° East 524 603 37,000  Level Denver Center
04:29PM 44.2517 -101.6008 82° East 524 603 37,000  Level Denver Center
04:30PM 44.2764 -101.3603 82° East 525 604 37,000  Level Denver Center
04:31PM 44.2989 -101.1619 81° East 521 600 37,000  Level Denver Center
04:32PM 44.3211 -100.9617 81° East 523 602 37,000  Level Denver Center
04:33PM 44.3419 -100.7611 82° East 523 602 37,000  Level Denver Center
04:35PM 44.3764 -100.4417 81° East 527 606 37,000  Level Minneapolis Center
04:36PM 44.3967 -100.2400 82° East 528 608 37,000  Level Minneapolis Center
04:37PM 44.4156 -100.0378 82° East 528 608 37,000  Level Minneapolis Center
04:38PM 44.4356 -99.8361 82° East 528 608 37,000  Level Minneapolis Center
04:39PM 44.4536 -99.6333 83° East 529 609 37,000  Level Minneapolis Center
04:40PM 44.4775 -99.3897 82° East 530 610 37,000  Level Minneapolis Center
04:46PM 44.5760 -98.2270 82° East 530 610 37,000  Level FlightAware
04:46PM 44.5850 -98.1090 84° East 528 608 37,000  Level FlightAware
04:47PM 44.5970 -97.9490 84° East 524 603 37,000  Level FlightAware
04:48PM 44.6070 -97.7620 86° East 523 602 37,000  Level FlightAware
04:49PM 44.6140 -97.6190 86° East 522 601 37,000  Level FlightAware
04:49PM 44.6220 -97.4640 86° East 524 603 37,000  Level FlightAware
04:50PM 44.6290 -97.3330 86° East 527 606 37,000  Level FlightAware
04:51PM 44.6360 -97.1820 86° East 529 609 37,000  Level FlightAware
04:51PM 44.6430 -97.0470 86° East 531 611 37,000  Level FlightAware
04:52PM 44.6490 -96.9100 86° East 530 610 37,000  Level FlightAware
04:53PM 44.6560 -96.7580 86° East 525 604 37,000  Level FlightAware
04:54PM 44.6620 -96.6050 87° East 523 602 37,000  Level FlightAware
04:54PM 44.6680 -96.4670 86° East 523 602 37,000  Level FlightAware
04:55PM 44.6730 -96.3500 87° East 523 602 37,000  Level FlightAware
04:55PM 44.6780 -96.2190 87° East 522 601 37,000  Level FlightAware
04:56PM 44.6840 -96.0670 87° East 520 598 37,000  Level FlightAware
04:57PM 44.6890 -95.9380 87° East 520 598 37,000  Level FlightAware
04:57PM 44.6940 -95.8170 87° East 517 595 37,000  Level FlightAware
04:58PM 44.6990 -95.6690 87° East 516 594 37,000  Level FlightAware
04:59PM 44.7040 -95.5240 87° East 515 593 37,000  Level FlightAware
05:00PM 44.7080 -95.3790 88° East 516 594 37,000  Level FlightAware
05:00PM 44.7130 -95.2390 87° East 516 594 37,000  Level FlightAware
05:01PM 44.7170 -95.1000 88° East 513 590 37,000  Level FlightAware
05:02PM 44.7210 -94.9690 87° East 512 589 37,000  Level FlightAware
05:02PM 44.7250 -94.8250 88° East 512 589 37,000  Level FlightAware
05:03PM 44.7290 -94.6770 88° East 512 589 37,000  Level FlightAware
05:04PM 44.7320 -94.5560 88° East 513 590 37,000  Level FlightAware
05:04PM 44.7350 -94.4100 88° East 513 590 37,000  Level FlightAware
05:05PM 44.7390 -94.2660 88° East 514 592 37,000  Level FlightAware
05:06PM 44.7420 -94.1310 88° East 512 589 37,000  Level FlightAware
05:06PM 44.7440 -94.0100 89° East 510 587 37,000  Level FlightAware
05:07PM 44.7470 -93.8730 88° East 506 582 37,000  Level FlightAware
05:08PM 44.7490 -93.7440 89° East 506 582 37,000  Level FlightAware
05:09PM 44.7520 -93.6100 88° East 506 582 37,000  Level FlightAware
05:09PM 44.7540 -93.4750 89° East 505 581 37,000  Level FlightAware
05:10PM 44.7560 -93.3480 89° East 505 581 37,000  Level FlightAware
05:10PM 44.7570 -93.2420 89° East 506 582 37,000  Level FlightAware
05:11PM 44.7540 -93.0970 92° East 509 586 37,000  Level FlightAware
05:12PM 44.7500 -92.9560 92° East 509 586 37,000  Level FlightAware
05:13PM 44.7460 -92.8190 92° East 508 585 37,000  Level FlightAware
05:13PM 44.7420 -92.6760 92° East 507 583 37,000  Level FlightAware
05:14PM 44.7380 -92.5470 92° East 506 582 37,000  Level FlightAware
05:15PM 44.7320 -92.3980 93° East 504 580 37,000  Level FlightAware
05:15PM 44.7280 -92.2810 93° East 504 580 37,000  Level FlightAware
05:16PM 44.7230 -92.1420 93° East 505 581 37,000  Level FlightAware
05:17PM 44.7180 -92.0060 93° East 506 582 37,000  Level FlightAware
05:17PM 44.7130 -91.8680 93° East 506 582 37,000  Level FlightAware
05:18PM 44.7070 -91.7300 93° East 506 582 37,000  Level FlightAware
05:19PM 44.7010 -91.5880 93° East 506 582 37,000  Level FlightAware
05:19PM 44.6960 -91.4610 93° East 506 582 37,000  Level FlightAware
05:20PM 44.6910 -91.3360 93° East 506 582 37,000  Level FlightAware
05:21PM 44.6850 -91.2180 94° East 505 581 37,000  Level FlightAware
05:21PM 44.6780 -91.0640 94° East 505 581 37,000  Level FlightAware
05:22PM 44.6740 -90.9620 93° East 504 580 37,000  Level FlightAware
05:23PM 44.6670 -90.8170 94° East 505 581 37,000  Level FlightAware
05:23PM 44.6600 -90.6860 94° East 504 580 37,000  Level FlightAware
05:24PM 44.6540 -90.5620 94° East 504 580 37,000  Level FlightAware
05:25PM 44.6470 -90.4300 94° East 504 580 37,000  Level FlightAware
05:25PM 44.6410 -90.2870 93° East 504 580 37,000  Level FlightAware
05:26PM 44.6380 -90.1550 92° East 504 580 37,000  Level FlightAware
05:27PM 44.6360 -90.0120 91° East 503 579 37,000  Level FlightAware
05:27PM 44.6350 -89.8830 91° East 502 578 37,000  Level FlightAware
05:28PM 44.6340 -89.7570 91° East 500 575 37,000  Level FlightAware
05:29PM 44.6330 -89.6250 91° East 499 574 37,000  Level FlightAware
05:29PM 44.6310 -89.4970 91° East 497 572 37,000  Level FlightAware
05:30PM 44.6290 -89.3670 91° East 497 572 37,000  Level FlightAware
05:31PM 44.6270 -89.2380 91° East 496 571 37,000  Level FlightAware
05:32PM 44.6250 -89.0980 91° East 495 570 37,000  Level FlightAware
05:32PM 44.6220 -88.9570 92° East 496 571 37,000  Level FlightAware
05:33PM 44.6200 -88.8270 91° East 497 572 37,000  Level FlightAware
05:34PM 44.6170 -88.6800 92° East 495 570 37,000  Level FlightAware
05:34PM 44.6140 -88.5640 92° East 495 570 37,000  Level FlightAware
05:35PM 44.6110 -88.4250 92° East 495 570 37,000  Level FlightAware
05:36PM 44.6080 -88.2990 92° East 494 568 37,000  Level FlightAware
05:37PM 44.6050 -88.1470 92° East 493 567 37,000  Level FlightAware
05:37PM 44.6020 -88.0330 92° East 494 568 37,000  Level FlightAware
05:38PM 44.5980 -87.8940 92° East 495 570 37,000  Level FlightAware
05:38PM 44.5940 -87.7670 92° East 496 571 37,000  Level FlightAware
05:39PM 44.5900 -87.6080 92° East 498 573 37,000  Level FlightAware
05:40PM 44.5860 -87.4820 93° East 498 573 37,000  Level FlightAware
05:41PM 44.5810 -87.3100 92° East 498 573 37,000  Level FlightAware
05:42PM 44.5770 -87.1850 93° East 499 574 37,000  Level FlightAware
05:42PM 44.5690 -86.9900 93° East 500 575 37,000  Level FlightAware
05:43PM 44.5650 -86.8630 92° East 500 575 37,000  Level FlightAware
05:44PM 44.5590 -86.7210 93° East 497 572 37,000  Level FlightAware
05:45PM 44.5540 -86.5920 93° East 497 572 37,000  Level FlightAware
05:45PM 44.5490 -86.4680 93° East 497 572 37,000  Level FlightAware
05:46PM 44.5450 -86.3520 93° East 497 572 37,000  Level FlightAware
05:46PM 44.5390 -86.2220 94° East 496 571 37,000  Level FlightAware
05:47PM 44.5320 -86.0480 93° East 494 568 37,000  Level FlightAware
05:48PM 44.5260 -85.9270 94° East 493 567 37,000  Level FlightAware
05:49PM 44.5200 -85.7900 93° East 494 568 37,000  Level FlightAware
05:49PM 44.5140 -85.6610 94° East 493 567 37,000  Level FlightAware
05:50PM 44.5090 -85.5470 93° East 494 568 37,000  Level FlightAware
05:51PM 44.5020 -85.4060 94° East 494 568 37,000  Level FlightAware
05:51PM 44.4960 -85.2850 94° East 494 568 37,000  Level FlightAware
05:52PM 44.4890 -85.1620 95° East 494 568 37,000  Level FlightAware
05:53PM 44.4820 -85.0310 94° East 495 570 37,000  Level FlightAware
05:53PM 44.4750 -84.8970 94° East 495 570 37,000  Level FlightAware
05:54PM 44.4690 -84.7740 94° East 495 570 37,000  Level FlightAware
05:55PM 44.4600 -84.6230 95° East 497 572 37,000  Level FlightAware
05:55PM 44.4530 -84.4960 94° East 498 573 37,000  Level FlightAware
05:56PM 44.4450 -84.3580 95° East 500 575 37,000  Level FlightAware
05:57PM 44.4370 -84.2350 95° East 502 578 37,000  Level FlightAware
05:57PM 44.4300 -84.1080 94° East 500 575 37,000  Level FlightAware
05:58PM 44.4220 -83.9870 95° East 494 568 37,000  Level FlightAware
05:59PM 44.4140 -83.8550 95° East 489 563 37,000  Level FlightAware
06:00PM 44.4060 -83.7240 95° East 487 560 37,000  Level FlightAware
06:00PM 44.3970 -83.5890 95° East 486 559 37,000  Level FlightAware
06:01PM 44.3880 -83.4560 95° East 487 560 37,000  Level FlightAware
06:02PM 44.3800 -83.3340 95° East 492 566 37,000  Level FlightAware
06:02PM 44.3690 -83.1830 96° East 494 568 37,000  Level FlightAware
06:03PM 44.3610 -83.0600 95° East 493 567 37,000  Level FlightAware
06:04PM 44.3500 -82.9180 96° East 494 568 37,000  Level FlightAware
06:04PM 44.3410 -82.7840 95° East 493 567 37,000  Level FlightAware
06:05PM 44.3320 -82.6680 96° East 493 567 37,000  Level FlightAware
06:06PM 44.3230 -82.5430 96° East 491 565 37,000  Level FlightAware
06:07PM 44.3130 -82.4120 96° East 489 563 37,000  Level FlightAware
06:07PM 44.3020 -82.2690 96° East 490 564 37,000  Level FlightAware
06:08PM 44.2920 -82.1410 96° East 492 566 37,000  Level FlightAware
06:09PM 44.2820 -82.0140 96° East 492 566 37,000  Level FlightAware
06:09PM 44.2720 -81.8960 97° East 493 567 37,000  Level FlightAware
06:10PM 44.2610 -81.7600 96° East 492 566 37,000  Level FlightAware
06:11PM 44.2520 -81.6410 96° East 493 567 37,000  Level FlightAware
06:11PM 44.2430 -81.5420 97° East 494 568 37,000  Level FlightAware
06:12PM 44.2310 -81.4000 97° East 495 570 37,000  Level FlightAware
06:13PM 44.2190 -81.2640 97° East 496 571 37,000  Level FlightAware
06:13PM 44.2060 -81.1110 97° East 496 571 37,000  Level FlightAware
06:14PM 44.1970 -81.0100 97° East 495 570 37,000  Level FlightAware
06:15PM 44.1840 -80.8640 97° East 495 570 37,000  Level FlightAware
06:15PM 44.1710 -80.7160 97° East 495 570 37,000  Level FlightAware
06:16PM 44.1630 -80.6300 97° East 496 571 37,000  Level FlightAware
06:17PM 44.1490 -80.4800 97° East 493 567 37,000  Level FlightAware
06:17PM 44.1370 -80.3540 98° East 492 566 37,000  Level FlightAware
06:18PM 44.1270 -80.2480 97° East 492 566 37,000  Level FlightAware
06:18PM 44.1170 -80.1510 98° East 492 566 37,000  Level FlightAware
06:19PM 44.1050 -80.0280 98° East 492 566 37,000  Level FlightAware
06:20PM 44.0930 -79.9000 97° East 490 564 37,000  Level FlightAware
06:20PM 44.0800 -79.7750 98° East 490 564 37,000  Level FlightAware
06:21PM 44.0680 -79.6530 98° East 490 564 37,000  Level FlightAware
06:22PM 44.0560 -79.5300 98° East 490 564 37,000  Level FlightAware
06:23PM 44.0410 -79.3870 98° East 490 564 37,000  Level FlightAware
06:23PM 44.0280 -79.2630 98° East 490 564 37,000  Level FlightAware
06:24PM 44.0130 -79.1230 98° East 490 564 37,000  Level FlightAware
06:25PM 44.0000 -78.9990 98° East 490 564 37,000  Level FlightAware
06:25PM 43.9880 -78.8910 99° East 491 565 37,000  Level FlightAware
06:26PM 43.9750 -78.7700 98° East 491 565 37,000  Level FlightAware
06:27PM 43.9610 -78.6410 99° East 492 566 37,000  Level FlightAware
06:27PM 43.9470 -78.5180 99° East 492 566 37,000  Level FlightAware
06:28PM 43.9330 -78.3930 99° East 492 566 37,000  Level FlightAware
06:29PM 43.9190 -78.2690 99° East 493 567 37,000  Level FlightAware
06:29PM 43.9030 -78.1280 99° East 492 566 37,000  Level FlightAware
06:30PM 43.8890 -78.0030 99° East 492 566 37,000  Level FlightAware
06:31PM 43.8720 -77.8650 100° East 493 567 37,000  Level FlightAware
06:31PM 43.8580 -77.7390 99° East 494 568 37,000  Level FlightAware
06:32PM 43.8440 -77.6290 100° East 496 571 37,000  Level FlightAware
06:33PM 43.8290 -77.5050 99° East 498 573 37,000  Level FlightAware
06:33PM 43.8130 -77.3700 99° East 499 574 37,000  Level FlightAware
06:34PM 43.7970 -77.2370 99° East 501 577 37,000  Level FlightAware
06:35PM 43.7800 -77.0990 100° East 500 575 37,000  Level FlightAware
06:35PM 43.7640 -76.9760 100° East 499 574 37,000  Level FlightAware
06:36PM 43.7480 -76.8440 99° East 496 571 37,000  Level FlightAware
06:37PM 43.7180 -76.7160 108° East 476 548 37,000  Level FlightAware
06:37PM 43.6680 -76.6340 130° Southeast 458 527 37,000  Level FlightAware
06:38PM 43.6000 -76.5440 136° Southeast 457 526 37,000  Level FlightAware
06:39PM 43.5460 -76.4730 136° Southeast 458 527 37,000  Level FlightAware
06:39PM 43.4860 -76.3950 137° Southeast 459 528 37,000  Level FlightAware
06:40PM 43.4160 -76.3020 136° Southeast 459 528 37,000  Level FlightAware
06:41PM 43.3620 -76.2310 136° Southeast 458 527 37,000  Level FlightAware
06:41PM 43.3020 -76.1520 136° Southeast 457 526 37,000  Level FlightAware
06:42PM 43.2400 -76.0720 137° Southeast 457 526 37,000  Level FlightAware
06:43PM 43.1810 -75.9950 136° Southeast 456 525 37,000  Level FlightAware
06:43PM 43.1180 -75.9130 136° Southeast 459 528 37,000  Level FlightAware
06:44PM 43.0560 -75.8330 137° Southeast 459 528 37,000  Level FlightAware
06:45PM 42.9930 -75.7520 137° Southeast 459 528 37,000  Level FlightAware
06:46PM 42.9250 -75.6650 137° Southeast 459 528 37,000  Level FlightAware
06:46PM 42.8670 -75.5900 137° Southeast 457 526 37,000  Level FlightAware
06:47PM 42.7970 -75.5000 137° Southeast 455 524 37,000  Level FlightAware
06:48PM 42.7350 -75.4210 137° Southeast 456 525 37,000  Level FlightAware
06:48PM 42.6780 -75.3500 138° Southeast 458 527 37,000 -720 Level FlightAware
06:49PM 42.6180 -75.2740 137° Southeast 464 534 36,100 -1,500 Descending FlightAware
06:50PM 42.5570 -75.1970 137° Southeast 472 543 35,100 -1,620 Descending FlightAware
06:50PM 42.4720 -75.0900 137° Southeast 479 551 33,800 -1,140 Descending FlightAware
06:51PM 42.3920 -74.9890 137° Southeast 481 554 33,200 -360 Descending FlightAware
06:52PM 42.3260 -74.9050 137° Southeast 481 554 33,200 -660 Level FlightAware
06:52PM 42.2621 -74.8265 138° Southeast 478 550 32,400 -1,740 Descending FlightAware ADS-B
06:53PM 42.2106 -74.7626 137° Southeast 483 556 31,500 -1,680 Descending FlightAware ADS-B
06:54PM 42.1332 -74.6669 137° Southeast 485 558 30,200 -1,680 Descending FlightAware ADS-B
06:54PM 42.0829 -74.6047 137° Southeast 490 564 29,400 -1,560 Descending FlightAware ADS-B
06:55PM 42.0152 -74.5210 137° Southeast 489 563 28,400 -1,080 Descending FlightAware ADS-B
06:56PM 41.9537 -74.4262 131° Southeast 495 570 28,000 -660 Descending FlightAware ADS-B
06:56PM 41.9204 -74.3730 130° Southeast 495 570 27,700 -1,380 Descending FlightAware ADS-B
06:57PM 41.8840 -74.3320 140° Southeast 490 564 26,800 -2,160 Descending FlightAware
06:57PM 41.8378 -74.2974 151° Southeast 478 550 26,100 -1,740 Descending FlightAware ADS-B
06:57PM 41.7772 -74.2653 158° South 468 539 25,500 -1,620 Descending FlightAware ADS-B
06:58PM 41.7163 -74.2340 159° South 458 527 24,500 -2,520 Descending FlightAware ADS-B
06:58PM 41.6492 -74.1995 159° South 449 517 22,800 -3,060 Descending FlightAware ADS-B
06:59PM 41.5909 -74.1695 159° South 441 507 21,200 -2,940 Descending FlightAware ADS-B
06:59PM 41.5542 -74.1508 159° South 436 502 20,400 -2,160 Descending FlightAware ADS-B
06:59PM 41.5309 -74.1412 163° South 432 497 20,100 -840 Descending FlightAware ADS-B
07:00PM 41.5100 -74.1345 167° South 429 494 20,100 -300 Level FlightAware ADS-B
07:00PM 41.4857 -74.1290 170° South 426 490 20,000 -300 Descending FlightAware ADS-B
07:00PM 41.4657 -74.1262 174° South 424 488 20,000  Level FlightAware ADS-B
07:00PM 41.4068 -74.1255 179° South 425 489 20,000  Level FlightAware ADS-B
07:01PM 41.3460 -74.1272 181° South 424 488 20,000  Level FlightAware ADS-B
07:01PM 41.2821 -74.1289 181° South 422 486 20,000 -420 Level FlightAware ADS-B
07:02PM 41.2233 -74.1301 181° South 419 482 19,600 -960 Descending FlightAware ADS-B
07:03PM 41.1595 -74.1311 181° South 416 479 19,000 -600 Descending FlightAware ADS-B
07:03PM 41.0992 -74.1320 181° South 419 482 19,000  Level FlightAware ADS-B
07:03PM 41.0586 -74.1327 181° South 413 475 19,000  Level FlightAware ADS-B
07:04PM 41.0415 -74.1329 181° South 405 466 19,000  Level FlightAware ADS-B
07:04PM 40.9928 -74.1337 181° South 375 432 19,000  Level FlightAware ADS-B
07:04PM 40.9879 -74.1337 180° South 367 422 19,000  Level FlightAware ADS-B
07:04PM 40.9486 -74.1335 180° South 346 398 19,000  Level FlightAware ADS-B
07:05PM 40.9289 -74.1273 167° South 332 382 19,000  Level FlightAware ADS-B
07:05PM 40.9267 -74.1263 161° South 365 420 19,000  Level FlightAware ADS-B
07:05PM 40.9152 -74.1188 154° Southeast 329 379 19,000  Level FlightAware ADS-B
07:05PM 40.9128 -74.1169 149° Southeast 328 377 19,000  Level FlightAware ADS-B
07:05PM 40.9054 -74.1095 143° Southeast 329 379 19,000  Level FlightAware ADS-B
07:05PM 40.9006 -74.1034 136° Southeast 331 381 19,000  Level FlightAware ADS-B
07:05PM 40.8991 -74.1013 133° Southeast 332 382 19,000  Level FlightAware ADS-B
07:05PM 40.8970 -74.0981 131° Southeast 333 383 19,000  Level FlightAware ADS-B
07:05PM 40.8944 -74.0935 127° Southeast 334 384 19,000  Level FlightAware ADS-B
07:05PM 40.8920 -74.0893 127° Southeast 335 386 19,000  Level FlightAware ADS-B
07:06PM 40.8704 -74.0472 124° Southeast 337 388 19,000  Level FlightAware ADS-B
07:06PM 40.8661 -74.0383 123° Southeast 337 388 19,000 -180 Level FlightAware ADS-B
07:06PM 40.8410 -73.9858 122° Southeast 337 388 18,900 -360 Descending FlightAware ADS-B
07:06PM 40.8376 -73.9788 123° Southeast 337 388 18,800 -1,380 Descending FlightAware ADS-B
07:07PM 40.8158 -73.9334 122° Southeast 334 384 18,200 -1,380 Descending FlightAware ADS-B
07:07PM 40.7909 -73.8823 123° Southeast 327 376 17,500 -1,440 Descending FlightAware ADS-B
07:08PM 40.7693 -73.8403 124° Southeast 319 367 16,900 -1,440 Descending FlightAware ADS-B
07:08PM 40.7407 -73.7954 130° Southeast 313 360 16,200 -1,500 Descending FlightAware ADS-B
07:09PM 40.7205 -73.7658 132° Southeast 307 353 15,600 -1,620 Descending FlightAware ADS-B
07:09PM 40.7107 -73.7560 143° Southeast 300 345 15,400 -1,440 Descending FlightAware ADS-B
07:09PM 40.6903 -73.7443 156° South 288 331 15,000 -1,920 Descending FlightAware ADS-B
07:09PM 40.6512 -73.7283 163° South 282 325 13,900 -2,160 Descending FlightAware ADS-B
07:10PM 40.6130 -73.7127 163° South 280 322 12,800 -2,220 Descending FlightAware ADS-B
07:10PM 40.5754 -73.6970 162° South 276 318 11,700 -2,280 Descending FlightAware ADS-B
07:11PM 40.5386 -73.6815 162° South 278 320 10,500 -2,400 Descending FlightAware ADS-B
07:11PM 40.5263 -73.6782 168° South 274 315 10,100 -2,400 Descending FlightAware ADS-B
07:11PM 40.5192 -73.6778 178° South 273 314 9,900 -2,340 Descending FlightAware ADS-B
07:11PM 40.5096 -73.6783 182° South 273 314 9,600 -2,400 Descending FlightAware ADS-B
07:11PM 40.5003 -73.6792 184° South 273 314 9,300 -2,760 Descending FlightAware ADS-B
07:12PM 40.4794 -73.6820 186° South 273 314 8,500 -2,580 Descending FlightAware ADS-B
07:12PM 40.4598 -73.6847 186° South 272 313 7,900 -2,340 Descending FlightAware ADS-B
07:12PM 40.4404 -73.6875 186° South 268 308 7,300 -2,280 Descending FlightAware ADS-B
07:12PM 40.4291 -73.6896 188° South 264 304 7,000 -2,040 Descending FlightAware ADS-B
07:13PM 40.4230 -73.6918 195° South 261 300 6,800 -2,700 Descending FlightAware ADS-B
07:13PM 40.4192 -73.6939 203° Southwest 261 300 6,600 -2,580 Descending FlightAware ADS-B
07:13PM 40.4150 -73.6970 209° Southwest 260 299 6,500 -1,740 Descending FlightAware ADS-B
07:13PM 40.4116 -73.7002 216° Southwest 260 299 6,400 -2,700 Descending FlightAware ADS-B
07:13PM 40.4065 -73.7067 224° Southwest 260 299 6,100 -2,340 Descending FlightAware ADS-B
07:13PM 40.3995 -73.7224 240° Southwest 263 303 5,700 -2,400 Descending FlightAware ADS-B
07:13PM 40.3981 -73.7277 251° West 264 304 5,500 -3,000 Descending FlightAware ADS-B
07:13PM 40.3966 -73.7349 255° West 264 304 5,300 -2,100 Descending FlightAware ADS-B
07:14PM 40.3892 -73.7793 258° West 269 310 4,400 -1,680 Descending FlightAware ADS-B
07:14PM 40.3851 -73.8051 258° West 269 310 4,100 -1,020 Descending FlightAware ADS-B
07:14PM 40.3809 -73.8301 258° West 275 316 3,900 -420 Descending FlightAware ADS-B
07:14PM 40.3770 -73.8544 258° West 259 298 3,900  Level FlightAware ADS-B
07:15PM 40.3725 -73.8843 259° West 228 262 3,900  Level FlightAware ADS-B
07:15PM 40.3726 -73.8906 271° West 223 257 3,900 480 Level FlightAware ADS-B
07:15PM 40.3739 -73.8987 282° West 214 246 4,000 600 Climbing FlightAware ADS-B
07:15PM 40.3751 -73.9029 291° West 212 244 4,000  Level FlightAware ADS-B
07:15PM 40.3771 -73.9085 295° West 211 243 4,000 -300 Level FlightAware ADS-B
07:15PM 40.3844 -73.9270 297° West 208 239 3,900 -300 Descending FlightAware ADS-B
07:15PM 40.3876 -73.9347 299° West 207 238 3,900  Level FlightAware ADS-B
07:16PM 40.3910 -73.9411 305° West 207 238 3,900  Level FlightAware ADS-B
07:16PM 40.3969 -73.9483 317° Northwest 207 238 3,900  Level FlightAware ADS-B
07:16PM 40.4014 -73.9519 329° Northwest 206 237 3,900  Level FlightAware ADS-B
07:16PM 40.4060 -73.9545 337° Northwest 206 237 3,900  Level FlightAware ADS-B
07:16PM 40.4097 -73.9557 346° North 206 237 3,900  Level FlightAware ADS-B
07:16PM 40.4192 -73.9574 352° North 207 238 3,900 -660 Level FlightAware ADS-B
07:16PM 40.4370 -73.9595 355° North 207 238 3,600 -900 Descending FlightAware ADS-B
07:17PM 40.4524 -73.9607 357° North 208 239 3,400 -600 Descending FlightAware ADS-B
07:17PM 40.4760 -73.9615 359° North 209 241 3,200 -360 Descending FlightAware ADS-B
07:18PM 40.5060 -73.9630 358° North 209 241 3,100 -240 Descending FlightAware
07:18PM 40.5430 -73.9520 13° North 182 209 2,900 -180 Descending FlightAware
07:19PM 40.5630 -73.9350 33° Northeast 174 200 2,900  Level FlightAware
07:19PM 40.5820 -73.9210 29° Northeast 164 189 2,900 -300 Level FlightAware
07:19PM 40.5900 -73.9140 34° Northeast 165 190 2,700 -900 Descending FlightAware
07:20PM 40.6070 -73.9000 32° Northeast 155 178 2,300 -840 Descending FlightAware
07:20PM 40.6160 -73.8930 31° Northeast 149 171 2,100 -840 Descending FlightAware
07:21PM 40.6330 -73.8790 32° Northeast 150 173 1,700 -780 Descending FlightAware
07:21PM 40.6450 -73.8700 30° Northeast 151 174 1,500 -840 Descending FlightAware
07:22PM 40.6610 -73.8520 40° Northeast 141 162 1,000 -900 Descending FlightAware
07:22PM 40.6650 -73.8450 53° Northeast 137 158 900 -660 Descending FlightAware
07:22PM 40.6680 -73.8320 73° East 133 153 700 -720 Descending FlightAware
07:22PM 40.6660 -73.8110 97° East 125 144 400 -780 Descending FlightAware
07:23PM 40.6630 -73.8020 114° Southeast 124 143 200 -1,020 Descending FlightAware
07:23PM 40.6560 -73.7860 120° Southeast 126 145 -480 Descending FlightAware
07:24PM 40.6490 -73.7720 123° Southeast 52 60  Level FlightAware
07:24PM 40.6470 -73.7690 131° Southeast 19 22  Level FlightAware
07:24PM 40.6450 -73.7700 201° Southwest 18 21  Level FlightAware
07:25PM 40.6440 -73.7700 180° South 30 35  Level FlightAware
07:25PM 40.6440 -73.7710 270° West 31 36  Level FlightAware
07:25PM 40.6430 -73.7720 217° Southwest 19 22  Level FlightAware
07:26PM 40.6400 -73.7740 207° Southwest 22 25  Level FlightAware
07:26PM 40.6390 -73.7750 217° Southwest 22 25  Level FlightAware
07:26PM 40.6370 -73.7760 201° Southwest 26 30  Level FlightAware
07:27PM 40.6370 -73.7770 270° West 27 31  Level FlightAware
07:27PM 40.6360 -73.7780 217° Southwest 22 25  Level FlightAware
07:27PM 40.6350 -73.7780 180° South 25 29  Level FlightAware
07:28PM 40.6340 -73.7790 217° Southwest 29 33  Level FlightAware
07:28PM 40.6340 -73.7800 270° West 27 31  Level FlightAware
07:28PM 40.6340 -73.7810 270° West 30 35  Level FlightAware
07:29PM 40.6350 -73.7830 303° West 22 25  Level FlightAware
07:31PM 40.6360 -73.7840 323° Northwest 14 16  Level FlightAware
07:33PM 40.6360 -73.7850 270° West 19 22  Level FlightAware
07:34PM 40.6360 -73.7860 270° West 21 24  Level FlightAware
07:34PM 40.6350 -73.7850 143° Southeast 25 29  Level FlightAware
07:34PM 40.6350 -73.7840 90° East 21 24  Level FlightAware
07:35PM 40.6350 -73.7830 90° East 14 16  Level FlightAware
07:44PM 40.6350 -73.7820 360° North 19 22  Level FlightAware
07:44PM 40.6350 -73.7830 270° West 13 15  Level FlightAware
07:45PM 40.6360 -73.7840 323° Northwest 20 23  Level FlightAware
07:46PM 40.6360 -73.7860 270° West 11 13  Level FlightAware
07:47PM 40.6370 -73.7860 360° North 10 12  Level FlightAware
07:48PM 40.6370 -73.7870 270° West 13 15  Level FlightAware
07:49PM 40.6370 -73.7880 270° West 13 15  Level FlightAware
07:50PM 40.6380 -73.7890 323° Northwest 20 23  Level FlightAware
07:50PM 40.6390 -73.7910 303° West 16 18  Level FlightAware
07:54PM 40.6390 -73.7920 270° West 18 21  Level FlightAware
07:54PM 40.6400 -73.7920 360° North 24 28  Level FlightAware
07:55PM 40.6410 -73.7920 360° North 22 25  Level FlightAware
07:55PM 40.6410 -73.7910 90° East 25 29  Level FlightAware